sensor_id;sensor_type;location;lat;lon;timestamp;temperature;humidity
1950;DHT22;975;48.760;9.152;2023-05-27T17:22:17;26.70;41.60
1950;DHT22;975;48.760;9.152;2023-05-27T17:25:07;26.70;42.20
1950;DHT22;975;48.760;9.152;2023-05-27T17:27:54;25.90;43.50
1950;DHT22;975;48.760;9.152;2023-05-27T17:30:41;25.70;43.70
1950;DHT22;975;48.760;9.152;2023-05-27T17:33:29;25.40;44.20
1950;DHT22;975;48.760;9.152;2023-05-27T17:36:16;25.30;44.60
1950;DHT22;975;48.760;9.152;2023-05-27T17:39:04;25.20;43.90
1950;DHT22;975;48.760;9.152;2023-05-27T17:41:53;25.10;44.20
1950;DHT22;975;48.760;9.152;2023-05-27T17:44:40;24.90;44.00
1950;DHT22;975;48.760;9.152;2023-05-27T17:47:27;24.70;44.80
1950;DHT22;975;48.760;9.152;2023-05-27T17:50:15;24.70;45.40
1950;DHT22;975;48.760;9.152;2023-05-27T17:53:02;24.60;45.00
1950;DHT22;975;48.760;9.152;2023-05-27T17:55:50;24.50;45.50
1950;DHT22;975;48.760;9.152;2023-05-27T17:58:38;24.50;46.00
1950;DHT22;975;48.760;9.152;2023-05-27T18:01:26;24.40;45.90
1950;DHT22;975;48.760;9.152;2023-05-27T18:04:15;24.30;46.20
1950;DHT22;975;48.760;9.152;2023-05-27T18:07:03;24.20;46.30
1950;DHT22;975;48.760;9.152;2023-05-27T18:09:50;24.20;46.20
1950;DHT22;975;48.760;9.152;2023-05-27T18:12:38;24.00;46.70
1950;DHT22;975;48.760;9.152;2023-05-27T18:15:26;23.70;46.80
1950;DHT22;975;48.760;9.152;2023-05-27T18:18:14;23.60;47.00
1950;DHT22;975;48.760;9.152;2023-05-27T18:21:01;23.50;47.10
1950;DHT22;975;48.760;9.152;2023-05-27T18:23:49;23.40;47.50
1950;DHT22;975;48.760;9.152;2023-05-27T18:26:36;23.20;47.70
1950;DHT22;975;48.760;9.152;2023-05-27T18:29:23;23.20;48.30
1950;DHT22;975;48.760;9.152;2023-05-27T18:32:12;23.30;49.10
1950;DHT22;975;48.760;9.152;2023-05-27T18:35:00;23.30;49.10
1950;DHT22;975;48.760;9.152;2023-05-27T18:37:47;23.30;49.00
1950;DHT22;975;48.760;9.152;2023-05-27T18:40:35;23.30;49.20
1950;DHT22;975;48.760;9.152;2023-05-27T18:43:25;23.20;49.80
1950;DHT22;975;48.760;9.152;2023-05-27T18:46:12;23.10;51.10
1950;DHT22;975;48.760;9.152;2023-05-27T18:49:01;23.10;51.90
1950;DHT22;975;48.760;9.152;2023-05-27T18:51:49;23.00;52.30
1950;DHT22;975;48.760;9.152;2023-05-27T18:54:37;23.00;52.50
1950;DHT22;975;48.760;9.152;2023-05-27T18:57:25;22.90;53.70
1950;DHT22;975;48.760;9.152;2023-05-27T19:00:13;22.70;53.70
1950;DHT22;975;48.760;9.152;2023-05-27T19:03:01;22.60;54.10
1950;DHT22;975;48.760;9.152;2023-05-27T19:05:51;22.50;54.90
1950;DHT22;975;48.760;9.152;2023-05-27T19:08:39;22.40;55.30
1950;DHT22;975;48.760;9.152;2023-05-27T19:11:26;22.20;56.00
1950;DHT22;975;48.760;9.152;2023-05-27T19:14:14;22.10;56.70
1950;DHT22;975;48.760;9.152;2023-05-27T19:19:49;21.90;56.90
1950;DHT22;975;48.760;9.152;2023-05-27T19:22:38;21.60;58.40
1950;DHT22;975;48.760;9.152;2023-05-27T19:36:36;21.40;58.80
